sensor_id;sensor_type;location;lat;lon;timestamp;temperature;humidity
32147;DHT22;32190;49.112;8.598;2022-08-19T00:03:43;27.60;45.80
32147;DHT22;32190;49.112;8.598;2022-08-19T00:09:39;27.40;45.90
32147;DHT22;32190;49.112;8.598;2022-08-19T00:15:33;27.40;45.90
32147;DHT22;32190;49.112;8.598;2022-08-19T00:21:39;27.40;46.00
32147;DHT22;32190;49.112;8.598;2022-08-19T00:27:38;27.40;45.90
32147;DHT22;32190;49.112;8.598;2022-08-19T00:33:46;27.50;45.90
32147;DHT22;32190;49.112;8.598;2022-08-19T00:39:39;27.40;45.90
32147;DHT22;32190;49.112;8.598;2022-08-19T00:45:39;27.50;45.80
32147;DHT22;32190;49.112;8.598;2022-08-19T00:51:35;27.50;45.90
32147;DHT22;32190;49.112;8.598;2022-08-19T00:58:04;27.40;46.00
32147;DHT22;32190;49.112;8.598;2022-08-19T01:04:06;27.40;45.90
32147;DHT22;32190;49.112;8.598;2022-08-19T01:10:01;27.30;46.10
32147;DHT22;32190;49.112;8.598;2022-08-19T01:16:02;27.20;46.10
32147;DHT22;32190;49.112;8.598;2022-08-19T01:28:22;27.20;46.10
32147;DHT22;32190;49.112;8.598;2022-08-19T01:34:13;27.20;46.20
32147;DHT22;32190;49.112;8.598;2022-08-19T01:40:04;27.20;46.20
32147;DHT22;32190;49.112;8.598;2022-08-19T01:46:07;27.20;46.30
32147;DHT22;32190;49.112;8.598;2022-08-19T01:51:59;27.20;46.30
32147;DHT22;32190;49.112;8.598;2022-08-19T01:58:01;27.20;46.30
32147;DHT22;32190;49.112;8.598;2022-08-19T02:04:02;27.20;46.40
32147;DHT22;32190;49.112;8.598;2022-08-19T02:10:02;27.20;46.20
32147;DHT22;32190;49.112;8.598;2022-08-19T02:16:02;27.10;46.20
32147;DHT22;32190;49.112;8.598;2022-08-19T02:21:59;27.10;46.30
32147;DHT22;32190;49.112;8.598;2022-08-19T02:27:50;27.10;46.50
32147;DHT22;32190;49.112;8.598;2022-08-19T02:34:03;27.00;47.10
32147;DHT22;32190;49.112;8.598;2022-08-19T02:40:03;26.90;46.60
32147;DHT22;32190;49.112;8.598;2022-08-19T02:45:54;26.90;46.80
32147;DHT22;32190;49.112;8.598;2022-08-19T02:51:48;26.90;46.60
32147;DHT22;32190;49.112;8.598;2022-08-19T02:57:45;26.90;46.60
32147;DHT22;32190;49.112;8.598;2022-08-19T03:03:48;26.80;46.60
32147;DHT22;32190;49.112;8.598;2022-08-19T03:09:52;26.80;46.50
32147;DHT22;32190;49.112;8.598;2022-08-19T03:16:19;26.80;46.90
32147;DHT22;32190;49.112;8.598;2022-08-19T03:22:09;26.70;47.00
32147;DHT22;32190;49.112;8.598;2022-08-19T03:28:00;26.70;46.90
32147;DHT22;32190;49.112;8.598;2022-08-19T03:34:03;26.70;46.90
32147;DHT22;32190;49.112;8.598;2022-08-19T03:39:58;26.60;47.10
32147;DHT22;32190;49.112;8.598;2022-08-19T03:46:02;26.60;47.10
32147;DHT22;32190;49.112;8.598;2022-08-19T03:51:58;26.60;46.80
32147;DHT22;32190;49.112;8.598;2022-08-19T03:58:08;26.60;46.80
32147;DHT22;32190;49.112;8.598;2022-08-19T04:03:59;26.50;47.00
32147;DHT22;32190;49.112;8.598;2022-08-19T04:09:50;26.50;47.10
32147;DHT22;32190;49.112;8.598;2022-08-19T04:15:44;26.40;47.00
32147;DHT22;32190;49.112;8.598;2022-08-19T04:22:10;26.40;47.30
32147;DHT22;32190;49.112;8.598;2022-08-19T04:28:01;26.40;47.50
32147;DHT22;32190;49.112;8.598;2022-08-19T04:33:53;26.40;47.50
32147;DHT22;32190;49.112;8.598;2022-08-19T04:39:53;26.30;47.40
32147;DHT22;32190;49.112;8.598;2022-08-19T04:46:06;26.30;47.60
32147;DHT22;32190;49.112;8.598;2022-08-19T04:51:59;26.30;47.40
32147;DHT22;32190;49.112;8.598;2022-08-19T04:57:54;26.30;47.40
32147;DHT22;32190;49.112;8.598;2022-08-19T05:03:50;26.20;47.90
32147;DHT22;32190;49.112;8.598;2022-08-19T05:09:45;26.20;47.90
32147;DHT22;32190;49.112;8.598;2022-08-19T05:15:35;26.20;48.00
32147;DHT22;32190;49.112;8.598;2022-08-19T05:21:27;26.20;48.10
32147;DHT22;32190;49.112;8.598;2022-08-19T05:27:36;26.10;47.90
32147;DHT22;32190;49.112;8.598;2022-08-19T05:33:27;26.20;48.10
32147;DHT22;32190;49.112;8.598;2022-08-19T05:39:21;26.20;48.10
32147;DHT22;32190;49.112;8.598;2022-08-19T05:45:11;26.20;48.20
32147;DHT22;32190;49.112;8.598;2022-08-19T05:51:05;26.20;48.40
32147;DHT22;32190;49.112;8.598;2022-08-19T05:56:56;26.20;48.20
32147;DHT22;32190;49.112;8.598;2022-08-19T06:02:47;26.30;48.30
32147;DHT22;32190;49.112;8.598;2022-08-19T06:08:38;26.30;48.10
32147;DHT22;32190;49.112;8.598;2022-08-19T06:14:31;26.30;48.10
32147;DHT22;32190;49.112;8.598;2022-08-19T06:20:23;26.30;48.20
32147;DHT22;32190;49.112;8.598;2022-08-19T06:26:14;26.30;48.20
32147;DHT22;32190;49.112;8.598;2022-08-19T06:32:06;26.30;48.10
32147;DHT22;32190;49.112;8.598;2022-08-19T06:37:56;26.40;48.30
32147;DHT22;32190;49.112;8.598;2022-08-19T06:43:47;26.40;48.20
32147;DHT22;32190;49.112;8.598;2022-08-19T06:49:39;26.50;48.20
32147;DHT22;32190;49.112;8.598;2022-08-19T06:55:29;26.50;48.30
32147;DHT22;32190;49.112;8.598;2022-08-19T07:01:21;26.60;48.40
32147;DHT22;32190;49.112;8.598;2022-08-19T07:07:13;26.60;48.50
32147;DHT22;32190;49.112;8.598;2022-08-19T07:13:04;26.70;48.60
32147;DHT22;32190;49.112;8.598;2022-08-19T07:18:56;26.80;48.50
32147;DHT22;32190;49.112;8.598;2022-08-19T07:24:46;26.90;48.40
32147;DHT22;32190;49.112;8.598;2022-08-19T07:30:37;26.90;48.30
32147;DHT22;32190;49.112;8.598;2022-08-19T07:36:36;27.00;48.50
32147;DHT22;32190;49.112;8.598;2022-08-19T07:49:06;27.10;48.40
32147;DHT22;32190;49.112;8.598;2022-08-19T07:54:59;27.10;48.10
32147;DHT22;32190;49.112;8.598;2022-08-19T08:00:53;27.10;48.00
32147;DHT22;32190;49.112;8.598;2022-08-19T08:06:44;27.10;48.00
32147;DHT22;32190;49.112;8.598;2022-08-19T08:12:56;27.10;47.90
32147;DHT22;32190;49.112;8.598;2022-08-19T08:18:46;27.00;48.00
32147;DHT22;32190;49.112;8.598;2022-08-19T08:24:37;27.10;48.10
32147;DHT22;32190;49.112;8.598;2022-08-19T08:30:29;27.10;48.10
32147;DHT22;32190;49.112;8.598;2022-08-19T08:36:21;27.20;48.20
32147;DHT22;32190;49.112;8.598;2022-08-19T08:42:24;27.20;48.10
32147;DHT22;32190;49.112;8.598;2022-08-19T08:48:24;27.30;48.10
32147;DHT22;32190;49.112;8.598;2022-08-19T08:54:20;27.50;48.00
32147;DHT22;32190;49.112;8.598;2022-08-19T09:00:23;27.70;47.80
32147;DHT22;32190;49.112;8.598;2022-08-19T09:06:21;27.80;47.50
32147;DHT22;32190;49.112;8.598;2022-08-19T09:18:14;28.00;46.70
32147;DHT22;32190;49.112;8.598;2022-08-19T09:24:06;28.00;46.30
32147;DHT22;32190;49.112;8.598;2022-08-19T09:29:57;28.00;46.40
32147;DHT22;32190;49.112;8.598;2022-08-19T09:35:48;28.10;46.40
32147;DHT22;32190;49.112;8.598;2022-08-19T09:41:38;28.20;46.20
32147;DHT22;32190;49.112;8.598;2022-08-19T09:47:29;28.20;46.10
32147;DHT22;32190;49.112;8.598;2022-08-19T09:53:20;28.30;46.00
32147;DHT22;32190;49.112;8.598;2022-08-19T09:59:13;28.50;45.50
32147;DHT22;32190;49.112;8.598;2022-08-19T10:05:04;28.60;45.00
32147;DHT22;32190;49.112;8.598;2022-08-19T10:11:13;28.70;44.90
32147;DHT22;32190;49.112;8.598;2022-08-19T10:17:06;28.90;44.40
32147;DHT22;32190;49.112;8.598;2022-08-19T10:22:57;29.00;44.00
32147;DHT22;32190;49.112;8.598;2022-08-19T10:28:49;29.10;43.80
32147;DHT22;32190;49.112;8.598;2022-08-19T10:34:40;29.20;43.80
32147;DHT22;32190;49.112;8.598;2022-08-19T10:40:30;29.40;43.80
32147;DHT22;32190;49.112;8.598;2022-08-19T10:46:23;29.50;42.80
32147;DHT22;32190;49.112;8.598;2022-08-19T10:52:14;29.50;42.90
32147;DHT22;32190;49.112;8.598;2022-08-19T10:58:23;29.60;43.00
32147;DHT22;32190;49.112;8.598;2022-08-19T11:04:17;29.70;43.10
32147;DHT22;32190;49.112;8.598;2022-08-19T11:10:09;29.80;42.60
32147;DHT22;32190;49.112;8.598;2022-08-19T11:16:05;29.80;42.80
32147;DHT22;32190;49.112;8.598;2022-08-19T11:21:57;29.90;42.10
32147;DHT22;32190;49.112;8.598;2022-08-19T11:27:51;29.90;42.30
32147;DHT22;32190;49.112;8.598;2022-08-19T11:33:42;29.90;42.40
32147;DHT22;32190;49.112;8.598;2022-08-19T11:39:34;29.90;42.30
32147;DHT22;32190;49.112;8.598;2022-08-19T11:45:27;30.00;42.00
32147;DHT22;32190;49.112;8.598;2022-08-19T11:51:27;30.10;41.50
32147;DHT22;32190;49.112;8.598;2022-08-19T11:57:17;30.30;41.10
32147;DHT22;32190;49.112;8.598;2022-08-19T12:09:35;30.60;39.00
32147;DHT22;32190;49.112;8.598;2022-08-19T12:15:27;30.60;39.30
32147;DHT22;32190;49.112;8.598;2022-08-19T12:21:28;30.70;39.60
32147;DHT22;32190;49.112;8.598;2022-08-19T12:27:18;30.70;38.70
32147;DHT22;32190;49.112;8.598;2022-08-19T12:33:27;30.70;39.10
32147;DHT22;32190;49.112;8.598;2022-08-19T12:39:21;30.80;38.10
32147;DHT22;32190;49.112;8.598;2022-08-19T12:45:15;30.90;38.10
32147;DHT22;32190;49.112;8.598;2022-08-19T12:51:13;31.00;38.40
32147;DHT22;32190;49.112;8.598;2022-08-19T12:57:06;31.10;37.30
32147;DHT22;32190;49.112;8.598;2022-08-19T13:02:58;31.10;37.90
32147;DHT22;32190;49.112;8.598;2022-08-19T13:08:50;31.20;37.80
32147;DHT22;32190;49.112;8.598;2022-08-19T13:56:55;28.70;39.60
32147;DHT22;32190;49.112;8.598;2022-08-19T14:02:47;29.40;39.20
32147;DHT22;32190;49.112;8.598;2022-08-19T14:08:37;30.10;38.10
32147;DHT22;32190;49.112;8.598;2022-08-19T14:14:29;30.70;37.20
32147;DHT22;32190;49.112;8.598;2022-08-19T14:20:21;31.10;36.70
32147;DHT22;32190;49.112;8.598;2022-08-19T14:26:14;31.40;35.80
32147;DHT22;32190;49.112;8.598;2022-08-19T14:32:05;31.70;34.70
32147;DHT22;32190;49.112;8.598;2022-08-19T14:37:56;31.80;34.70
32147;DHT22;32190;49.112;8.598;2022-08-19T14:43:52;31.90;35.00
32147;DHT22;32190;49.112;8.598;2022-08-19T14:49:43;32.10;34.70
32147;DHT22;32190;49.112;8.598;2022-08-19T14:55:36;32.30;35.30
32147;DHT22;32190;49.112;8.598;2022-08-19T15:01:30;32.40;34.40
32147;DHT22;32190;49.112;8.598;2022-08-19T15:07:23;32.50;34.50
32147;DHT22;32190;49.112;8.598;2022-08-19T15:13:14;32.50;34.20
32147;DHT22;32190;49.112;8.598;2022-08-19T15:19:05;32.60;34.90
32147;DHT22;32190;49.112;8.598;2022-08-19T15:24:55;32.70;34.40
32147;DHT22;32190;49.112;8.598;2022-08-19T15:30:46;32.80;34.40
32147;DHT22;32190;49.112;8.598;2022-08-19T15:36:37;32.80;34.30
32147;DHT22;32190;49.112;8.598;2022-08-19T15:42:43;32.80;34.00
32147;DHT22;32190;49.112;8.598;2022-08-19T15:48:33;32.70;33.50
32147;DHT22;32190;49.112;8.598;2022-08-19T15:54:25;32.60;33.90
32147;DHT22;32190;49.112;8.598;2022-08-19T16:00:15;32.60;33.80
32147;DHT22;32190;49.112;8.598;2022-08-19T16:06:50;32.50;34.00
32147;DHT22;32190;49.112;8.598;2022-08-19T16:12:44;32.50;33.30
32147;DHT22;32190;49.112;8.598;2022-08-19T16:18:35;32.50;34.00
32147;DHT22;32190;49.112;8.598;2022-08-19T16:24:27;32.50;33.90
32147;DHT22;32190;49.112;8.598;2022-08-19T16:30:18;32.50;33.90
32147;DHT22;32190;49.112;8.598;2022-08-19T16:36:09;32.50;34.10
32147;DHT22;32190;49.112;8.598;2022-08-19T16:41:59;32.50;34.20
32147;DHT22;32190;49.112;8.598;2022-08-19T16:47:50;32.60;34.60
32147;DHT22;32190;49.112;8.598;2022-08-19T16:53:45;32.60;34.20
32147;DHT22;32190;49.112;8.598;2022-08-19T16:59:35;32.60;34.00
32147;DHT22;32190;49.112;8.598;2022-08-19T17:05:26;32.60;33.90
32147;DHT22;32190;49.112;8.598;2022-08-19T17:11:17;32.50;34.00
32147;DHT22;32190;49.112;8.598;2022-08-19T17:17:08;32.50;34.10
32147;DHT22;32190;49.112;8.598;2022-08-19T17:23:02;32.50;34.50
32147;DHT22;32190;49.112;8.598;2022-08-19T17:28:57;32.50;34.70
32147;DHT22;32190;49.112;8.598;2022-08-19T17:34:51;32.60;34.90
32147;DHT22;32190;49.112;8.598;2022-08-19T17:40:50;32.60;34.80
32147;DHT22;32190;49.112;8.598;2022-08-19T17:46:40;32.60;35.20
32147;DHT22;32190;49.112;8.598;2022-08-19T17:52:31;32.70;35.30
32147;DHT22;32190;49.112;8.598;2022-08-19T17:58:22;32.70;34.80
32147;DHT22;32190;49.112;8.598;2022-08-19T18:04:13;32.80;35.30
32147;DHT22;32190;49.112;8.598;2022-08-19T18:10:22;32.80;35.40
32147;DHT22;32190;49.112;8.598;2022-08-19T18:16:21;32.70;35.00
32147;DHT22;32190;49.112;8.598;2022-08-19T18:22:42;32.70;35.40
32147;DHT22;32190;49.112;8.598;2022-08-19T18:28:44;32.70;35.30
32147;DHT22;32190;49.112;8.598;2022-08-19T18:34:47;32.70;35.40
32147;DHT22;32190;49.112;8.598;2022-08-19T18:40:49;32.60;35.50
32147;DHT22;32190;49.112;8.598;2022-08-19T18:53:47;32.50;35.70
32147;DHT22;32190;49.112;8.598;2022-08-19T19:12:25;32.20;35.80
32147;DHT22;32190;49.112;8.598;2022-08-19T19:19:01;32.30;36.20
32147;DHT22;32190;49.112;8.598;2022-08-19T19:25:01;32.10;36.00
32147;DHT22;32190;49.112;8.598;2022-08-19T19:43:55;31.90;36.10
32147;DHT22;32190;49.112;8.598;2022-08-19T19:50:22;31.80;36.10
32147;DHT22;32190;49.112;8.598;2022-08-19T19:56:49;31.70;35.70
32147;DHT22;32190;49.112;8.598;2022-08-19T20:09:23;31.70;36.00
32147;DHT22;32190;49.112;8.598;2022-08-19T20:34:47;31.30;36.30
32147;DHT22;32190;49.112;8.598;2022-08-19T21:12:55;30.70;37.20
32147;DHT22;32190;49.112;8.598;2022-08-19T21:18:46;30.70;37.30
32147;DHT22;32190;49.112;8.598;2022-08-19T21:31:00;30.60;37.50
32147;DHT22;32190;49.112;8.598;2022-08-19T21:36:53;30.50;37.60
32147;DHT22;32190;49.112;8.598;2022-08-19T21:42:44;30.40;37.70
32147;DHT22;32190;49.112;8.598;2022-08-19T21:48:36;30.40;37.90
32147;DHT22;32190;49.112;8.598;2022-08-19T21:54:26;30.30;38.00
32147;DHT22;32190;49.112;8.598;2022-08-19T22:00:20;30.30;38.10
32147;DHT22;32190;49.112;8.598;2022-08-19T22:06:11;30.20;38.40
32147;DHT22;32190;49.112;8.598;2022-08-19T22:12:31;30.10;38.40
32147;DHT22;32190;49.112;8.598;2022-08-19T22:18:22;30.00;38.70
32147;DHT22;32190;49.112;8.598;2022-08-19T22:24:13;30.00;38.80
32147;DHT22;32190;49.112;8.598;2022-08-19T22:30:09;29.90;38.70
32147;DHT22;32190;49.112;8.598;2022-08-19T22:36:00;29.90;38.90
32147;DHT22;32190;49.112;8.598;2022-08-19T22:41:51;29.90;38.90
32147;DHT22;32190;49.112;8.598;2022-08-19T22:47:41;29.90;39.10
32147;DHT22;32190;49.112;8.598;2022-08-19T22:53:37;29.80;39.30
32147;DHT22;32190;49.112;8.598;2022-08-19T22:59:28;29.70;39.30
32147;DHT22;32190;49.112;8.598;2022-08-19T23:05:20;29.60;39.50
32147;DHT22;32190;49.112;8.598;2022-08-19T23:11:11;29.60;39.70
32147;DHT22;32190;49.112;8.598;2022-08-19T23:17:03;29.50;39.60
32147;DHT22;32190;49.112;8.598;2022-08-19T23:22:54;29.50;40.00
32147;DHT22;32190;49.112;8.598;2022-08-19T23:28:45;29.40;40.00
32147;DHT22;32190;49.112;8.598;2022-08-19T23:34:55;29.40;40.30
32147;DHT22;32190;49.112;8.598;2022-08-19T23:40:45;29.30;40.40
32147;DHT22;32190;49.112;8.598;2022-08-19T23:46:37;29.20;40.30
32147;DHT22;32190;49.112;8.598;2022-08-19T23:52:28;29.20;40.40
32147;DHT22;32190;49.112;8.598;2022-08-19T23:58:19;29.20;40.60
